createdAt,value
2019-02-18T00:00:10.571Z,30.8
2019-02-18T00:01:00.584Z,30.8
2019-02-18T00:01:50.749Z,30.8
2019-02-18T00:02:40.457Z,30.8
2019-02-18T00:03:31.138Z,30.8
2019-02-18T00:04:20.327Z,30.8
2019-02-18T00:05:10.678Z,30.8
2019-02-18T00:06:01.025Z,30.8
2019-02-18T00:06:51.318Z,30.8
2019-02-18T00:07:41.093Z,30.8
2019-02-18T00:08:31.151Z,30.8
2019-02-18T00:09:21.213Z,30.7
2019-02-18T00:10:11.080Z,30.8
2019-02-18T00:11:00.836Z,30.8
2019-02-18T00:11:50.883Z,30.8
2019-02-18T00:12:41.490Z,30.8
2019-02-18T00:13:31.492Z,30.8
2019-02-18T00:14:21.243Z,30.8
2019-02-18T00:15:11.682Z,30.8
2019-02-18T00:16:01.138Z,30.8
2019-02-18T00:16:51.225Z,30.8
2019-02-18T00:17:41.763Z,30.8
2019-02-18T00:18:32.157Z,30.8
2019-02-18T00:19:21.904Z,30.8
2019-02-18T00:20:11.420Z,30.8
2019-02-18T00:21:02.340Z,30.7
2019-02-18T00:21:51.785Z,30.7
2019-02-18T00:22:42.658Z,30.7
2019-02-18T00:23:32.477Z,30.8
2019-02-18T00:24:22.799Z,30.8
2019-02-18T00:25:12.060Z,30.8
2019-02-18T00:26:02.370Z,30.7
2019-02-18T00:26:52.414Z,30.8
2019-02-18T00:27:42.481Z,30.8
2019-02-18T00:28:32.805Z,30.7
2019-02-18T00:29:22.337Z,30.7
2019-02-18T00:30:12.117Z,30.7
2019-02-18T00:31:02.421Z,30.7
2019-02-18T00:31:53.017Z,30.7
2019-02-18T00:32:43.112Z,30.7
2019-02-18T00:33:33.154Z,30.7
2019-02-18T00:34:23.181Z,30.7
2019-02-18T00:35:13.056Z,30.7
2019-02-18T00:36:03.679Z,30.7
2019-02-18T00:36:53.154Z,30.6
2019-02-18T00:37:42.861Z,30.7
2019-02-18T00:38:33.226Z,30.7
2019-02-18T00:39:23.286Z,30.7
2019-02-18T00:40:13.618Z,30.7
2019-02-18T00:41:03.422Z,30.7
2019-02-18T00:41:54.456Z,30.6
2019-02-18T00:42:43.794Z,30.7
2019-02-18T00:43:34.133Z,30.6
2019-02-18T00:44:23.701Z,30.7
2019-02-18T00:45:13.761Z,30.7
2019-02-18T00:46:03.511Z,30.7
2019-02-18T00:46:53.037Z,30.6
2019-02-18T00:47:44.135Z,30.6
2019-02-18T00:48:33.645Z,30.6
2019-02-18T00:49:23.440Z,30.6
2019-02-18T00:50:13.761Z,30.6
2019-02-18T00:51:03.236Z,30.6
2019-02-18T00:51:53.618Z,30.6
2019-02-18T00:52:44.188Z,30.6
2019-02-18T00:53:34.874Z,30.6
2019-02-18T00:54:24.600Z,30.6
2019-02-18T00:55:14.390Z,30.6
2019-02-18T00:56:03.669Z,30.6
2019-02-18T00:56:54.478Z,30.6
2019-02-18T00:57:44.356Z,30.6
2019-02-18T00:58:34.603Z,30.6
2019-02-18T00:59:24.467Z,30.6
2019-02-18T01:00:14.835Z,30.6
2019-02-18T01:01:04.795Z,30.6
2019-02-18T01:01:54.877Z,30.6
2019-02-18T01:02:44.339Z,30.6
2019-02-18T01:03:34.945Z,30.6
2019-02-18T01:04:25.305Z,30.6
2019-02-18T01:05:14.864Z,30.6
2019-02-18T01:06:04.346Z,30.6
2019-02-18T01:06:55.222Z,30.6
2019-02-18T01:07:44.992Z,30.6
2019-02-18T01:08:35.082Z,30.6
2019-02-18T01:09:25.677Z,30.6
2019-02-18T01:10:15.472Z,30.6
2019-02-18T01:11:04.744Z,30.6
2019-02-18T01:11:55.529Z,30.6
2019-02-18T01:12:45.598Z,30.6
2019-02-18T01:13:35.634Z,30.6
2019-02-18T01:14:25.984Z,30.6
2019-02-18T01:15:15.541Z,30.6
2019-02-18T01:16:05.877Z,30.6
2019-02-18T01:16:55.346Z,30.5
2019-02-18T01:17:45.953Z,30.6
2019-02-18T01:18:36.284Z,30.6
2019-02-18T01:19:26.596Z,30.6
2019-02-18T01:20:16.257Z,30.6
2019-02-18T01:21:06.160Z,30.5
2019-02-18T01:21:56.204Z,30.5
2019-02-18T01:22:47.009Z,30.5
2019-02-18T01:23:36.666Z,30.5
2019-02-18T01:24:25.870Z,30.5
2019-02-18T01:25:15.990Z,30.5
2019-02-18T01:26:06.779Z,30.5
2019-02-18T01:26:56.831Z,30.5
2019-02-18T01:27:46.673Z,30.5
2019-02-18T01:28:36.433Z,30.5
2019-02-18T01:29:26.753Z,30.5
2019-02-18T01:30:16.326Z,30.5
2019-02-18T01:31:06.698Z,30.5
2019-02-18T01:31:56.698Z,30.5
2019-02-18T01:32:47.548Z,30.5
2019-02-18T01:33:36.440Z,30.5
2019-02-18T01:34:27.380Z,30.5
2019-02-18T01:35:16.858Z,30.5
2019-02-18T01:36:06.682Z,30.4
2019-02-18T01:36:57.250Z,30.5
2019-02-18T01:37:51.398Z,30.5
2019-02-18T01:38:37.719Z,30.5
2019-02-18T01:39:27.720Z,30.5
2019-02-18T01:40:17.625Z,30.4
2019-02-18T01:41:08.142Z,30.4
2019-02-18T01:41:57.590Z,30.5
2019-02-18T01:42:48.219Z,30.5
2019-02-18T01:43:37.170Z,30.4
2019-02-18T01:44:27.847Z,30.4
2019-02-18T01:45:17.002Z,30.4
2019-02-18T01:46:08.197Z,30.4
2019-02-18T01:46:58.274Z,30.4
2019-02-18T01:47:48.014Z,30.4
2019-02-18T01:48:38.104Z,30.4
2019-02-18T01:49:27.607Z,30.4
2019-02-18T01:50:18.942Z,30.4
2019-02-18T01:51:08.249Z,30.4
2019-02-18T01:51:57.745Z,30.4
2019-02-18T01:52:48.402Z,30.4
2019-02-18T01:53:38.686Z,30.4
2019-02-18T01:54:27.912Z,30.4
2019-02-18T01:55:18.335Z,30.4
2019-02-18T01:56:08.859Z,30.4
2019-02-18T01:56:58.346Z,30.4
2019-02-18T01:57:48.966Z,30.4
2019-02-18T01:58:38.012Z,30.4
2019-02-18T01:59:28.516Z,30.4
2019-02-18T02:00:18.171Z,30.4
2019-02-18T02:01:08.725Z,30.4
2019-02-18T02:01:58.224Z,30.4
2019-02-18T02:02:48.682Z,30.4
2019-02-18T02:03:39.704Z,30.4
2019-02-18T02:04:28.689Z,30.4
2019-02-18T02:05:19.121Z,30.4
2019-02-18T02:06:09.001Z,30.4
2019-02-18T02:06:59.406Z,30.4
2019-02-18T02:08:00.163Z,30.4
2019-02-18T02:08:38.973Z,30.4
2019-02-18T02:09:28.450Z,30.4
2019-02-18T02:10:19.111Z,30.4
2019-02-18T02:11:08.854Z,30.4
2019-02-18T02:11:58.918Z,30.4
2019-02-18T02:12:50.308Z,30.4
2019-02-18T02:13:40.093Z,30.4
2019-02-18T02:14:29.379Z,30.4
2019-02-18T02:15:19.983Z,30.4
2019-02-18T02:16:09.950Z,30.4
2019-02-18T02:17:00.065Z,30.4
2019-02-18T02:17:50.089Z,30.4
2019-02-18T02:18:40.150Z,30.4
2019-02-18T02:19:30.488Z,30.4
2019-02-18T02:20:19.998Z,30.4
2019-02-18T02:21:09.857Z,30.4
2019-02-18T02:22:00.369Z,30.3
2019-02-18T02:22:50.419Z,30.3
2019-02-18T02:23:40.486Z,30.3
2019-02-18T02:24:30.280Z,30.4
2019-02-18T02:25:20.353Z,30.3
2019-02-18T02:26:10.965Z,30.3
2019-02-18T02:27:00.727Z,30.3
2019-02-18T02:27:50.777Z,30.3
2019-02-18T02:28:40.830Z,30.3
2019-02-18T02:29:30.961Z,30.3
2019-02-18T02:30:21.408Z,30.3
2019-02-18T02:31:11.078Z,30.3
2019-02-18T02:32:01.518Z,30.3
2019-02-18T02:32:51.153Z,30.3
2019-02-18T02:33:41.489Z,30.3
2019-02-18T02:34:31.349Z,30.3
2019-02-18T02:35:21.727Z,30.3
2019-02-18T02:36:11.923Z,30.3
2019-02-18T02:37:01.156Z,30.3
2019-02-18T02:37:51.576Z,30.3
2019-02-18T02:38:40.767Z,30.3
2019-02-18T02:39:32.272Z,30.3
2019-02-18T02:40:21.405Z,30.3
2019-02-18T02:41:12.010Z,30.3
2019-02-18T02:42:01.239Z,30.3
2019-02-18T02:42:51.941Z,30.3
2019-02-18T02:43:42.169Z,30.3
2019-02-18T02:44:32.323Z,30.3
2019-02-18T02:45:22.392Z,30.3
2019-02-18T02:46:12.686Z,30.3
2019-02-18T02:47:01.956Z,30.3
2019-02-18T02:47:52.153Z,30.3
2019-02-18T02:48:42.508Z,30.3
2019-02-18T02:49:32.462Z,30.3
2019-02-18T02:50:22.936Z,30.3
2019-02-18T02:51:13.121Z,30.3
2019-02-18T02:52:02.771Z,30.3
2019-02-18T02:52:52.068Z,30.3
2019-02-18T02:53:43.212Z,30.3
2019-02-18T02:54:32.218Z,30.3
2019-02-18T02:55:22.723Z,30.3
2019-02-18T02:56:12.893Z,30.3
2019-02-18T02:57:02.586Z,30.3
2019-02-18T02:57:52.378Z,30.3
2019-02-18T02:58:42.655Z,30.3
2019-02-18T02:59:32.270Z,30.3
2019-02-18T03:00:22.710Z,30.2
2019-02-18T03:01:13.723Z,30.2
2019-02-18T03:02:02.183Z,30.2
2019-02-18T03:02:52.763Z,30.3
2019-02-18T03:03:42.575Z,30.2
2019-02-18T03:04:32.390Z,30.2
2019-02-18T03:08:05.631Z,30.2
2019-02-18T03:08:55.240Z,30.2
2019-02-18T03:09:45.437Z,30.2
2019-02-18T03:10:35.205Z,30.2
2019-02-18T03:11:25.566Z,30.2
2019-02-18T03:12:15.078Z,30.2
2019-02-18T03:13:05.422Z,30.2
2019-02-18T03:13:55.710Z,30.2
2019-02-18T03:14:45.254Z,30.1
2019-02-18T03:15:36.164Z,30.2
2019-02-18T03:16:25.336Z,30.1
2019-02-18T03:17:15.178Z,30.2
2019-02-18T03:18:06.279Z,30.2
2019-02-18T03:18:56.111Z,30.2
2019-02-18T03:19:46.596Z,30.1
2019-02-18T03:20:36.399Z,30.2
2019-02-18T03:21:25.976Z,30.2
2019-02-18T03:22:16.213Z,30.1
2019-02-18T03:23:06.371Z,30.2
2019-02-18T03:23:56.765Z,30.2
2019-02-18T03:24:46.518Z,30.1
2019-02-18T03:25:36.919Z,30.2
2019-02-18T03:26:27.080Z,30.1
2019-02-18T03:27:16.709Z,30.1
2019-02-18T03:28:06.658Z,30.1
2019-02-18T03:28:57.504Z,30.1
2019-02-18T03:29:47.655Z,30.1
2019-02-18T03:30:37.291Z,30.1
2019-02-18T03:31:27.599Z,30.1
2019-02-18T03:32:17.351Z,30.1
2019-02-18T03:33:08.268Z,30.1
2019-02-18T03:33:57.966Z,30.1
2019-02-18T03:34:46.863Z,30.1
2019-02-18T03:35:38.038Z,30.1
2019-02-18T03:36:27.780Z,30.1
2019-02-18T03:37:17.599Z,30.1
2019-02-18T03:38:08.277Z,30.1
2019-02-18T03:38:57.989Z,30.1
2019-02-18T03:39:48.078Z,30.1
2019-02-18T03:40:38.331Z,30.1
2019-02-18T03:41:28.645Z,30.1
2019-02-18T03:42:18.212Z,30.1
2019-02-18T03:43:08.197Z,30.1
2019-02-18T03:43:58.302Z,30.1
2019-02-18T03:44:48.630Z,30.1
2019-02-18T03:45:38.132Z,30.1
2019-02-18T03:46:28.843Z,30.1
2019-02-18T03:47:17.750Z,30.1
2019-02-18T03:48:09.187Z,30.1
2019-02-18T03:48:58.640Z,30.1
2019-02-18T03:49:48.803Z,30.1
2019-02-18T03:50:38.692Z,30.1
2019-02-18T03:51:28.818Z,30.1
2019-02-18T03:52:19.142Z,30.1
2019-02-18T03:53:08.959Z,30.1
2019-02-18T03:53:59.232Z,30.1
2019-02-18T03:54:49.347Z,30.1
2019-02-18T03:55:39.152Z,30.1
2019-02-18T03:56:28.913Z,30.1
2019-02-18T03:57:18.969Z,30.1
2019-02-18T03:58:09.275Z,30
2019-02-18T03:58:59.126Z,30.1
2019-02-18T03:59:49.179Z,30.1
2019-02-18T04:00:38.901Z,30
2019-02-18T04:01:29.802Z,30
2019-02-18T04:02:19.578Z,30.1
2019-02-18T04:03:09.061Z,30
2019-02-18T04:03:59.462Z,30
2019-02-18T04:04:49.728Z,30
2019-02-18T04:05:39.762Z,30
2019-02-18T04:06:29.434Z,30
2019-02-18T04:07:19.899Z,30.1
2019-02-18T04:08:10.223Z,30
2019-02-18T04:09:00.297Z,30
2019-02-18T04:09:49.795Z,30
2019-02-18T04:10:40.175Z,30
2019-02-18T04:11:30.590Z,30
2019-02-18T04:12:19.976Z,30
2019-02-18T04:13:10.922Z,30
2019-02-18T04:14:00.756Z,30
2019-02-18T04:14:50.968Z,29.9
2019-02-18T04:15:40.481Z,30
2019-02-18T04:16:30.507Z,29.9
2019-02-18T04:17:19.788Z,29.9
2019-02-18T04:18:10.690Z,29.9
2019-02-18T04:19:00.747Z,29.9
2019-02-18T04:19:52.342Z,29.9
2019-02-18T04:20:40.878Z,29.9
2019-02-18T04:21:30.443Z,30
2019-02-18T04:22:20.903Z,29.9
2019-02-18T04:23:10.721Z,30
2019-02-18T04:24:00.495Z,29.9
2019-02-18T04:24:51.153Z,29.9
2019-02-18T04:25:41.107Z,29.9
2019-02-18T04:26:31.635Z,29.9
2019-02-18T04:27:21.275Z,29.9
2019-02-18T04:28:11.047Z,29.9
2019-02-18T04:29:01.136Z,29.9
2019-02-18T04:29:51.412Z,29.9
2019-02-18T04:30:41.837Z,29.9
2019-02-18T04:31:32.019Z,29.9
2019-02-18T04:32:21.904Z,29.9
2019-02-18T04:33:12.029Z,29.9
2019-02-18T04:34:02.029Z,29.9
2019-02-18T04:34:51.797Z,29.9
2019-02-18T04:35:41.832Z,29.9
2019-02-18T04:36:32.189Z,29.9
2019-02-18T04:37:22.545Z,29.9
2019-02-18T04:38:11.770Z,29.9
2019-02-18T04:39:02.072Z,29.9
2019-02-18T04:39:52.146Z,29.9
2019-02-18T04:40:42.242Z,29.9
2019-02-18T04:41:32.298Z,29.9
2019-02-18T04:42:22.573Z,29.9
2019-02-18T04:43:12.891Z,29.9
2019-02-18T04:44:02.769Z,29.9
2019-02-18T04:44:52.255Z,29.9
2019-02-18T04:45:42.043Z,29.9
2019-02-18T04:46:33.198Z,29.9
2019-02-18T04:47:23.030Z,29.9
2019-02-18T04:48:13.331Z,29.9
2019-02-18T04:49:03.099Z,29.9
2019-02-18T04:49:53.368Z,29.9
2019-02-18T04:50:43.194Z,29.9
2019-02-18T04:51:32.984Z,29.9
2019-02-18T04:52:23.018Z,29.9
2019-02-18T04:53:13.073Z,29.9
2019-02-18T04:54:03.411Z,29.9
2019-02-18T04:54:53.166Z,29.9
2019-02-18T04:55:42.937Z,29.9
2019-02-18T04:56:33.612Z,29.9
2019-02-18T04:57:23.648Z,29.9
2019-02-18T04:58:13.756Z,29.9
2019-02-18T04:59:03.202Z,29.9
2019-02-18T04:59:53.839Z,29.8
2019-02-18T05:00:43.362Z,29.8
2019-02-18T05:01:34.226Z,29.8
2019-02-18T05:02:24.010Z,29.8
2019-02-18T05:03:13.770Z,29.8
2019-02-18T05:04:03.934Z,29.8
2019-02-18T05:04:54.212Z,29.8
2019-02-18T05:05:44.487Z,29.8
2019-02-18T05:06:34.053Z,29.9
2019-02-18T05:07:24.627Z,29.9
2019-02-18T05:08:14.667Z,29.8
2019-02-18T05:09:10.492Z,29.8
2019-02-18T05:09:54.521Z,29.8
2019-02-18T05:10:44.858Z,29.8
2019-02-18T05:11:34.341Z,29.8
2019-02-18T05:12:24.402Z,29.8
2019-02-18T05:13:14.184Z,29.8
2019-02-18T05:14:04.557Z,29.8
2019-02-18T05:14:54.562Z,29.8
2019-02-18T05:15:45.295Z,29.8
2019-02-18T05:16:34.693Z,29.8
2019-02-18T05:17:24.484Z,29.8
2019-02-18T05:18:14.507Z,29.8
2019-02-18T05:19:04.618Z,29.8
2019-02-18T05:19:54.658Z,29.8
2019-02-18T05:20:45.305Z,29.8
2019-02-18T05:21:35.037Z,29.8
2019-02-18T05:22:25.088Z,29.8
2019-02-18T05:23:15.443Z,29.8
2019-02-18T05:24:05.021Z,29.8
2019-02-18T05:24:55.278Z,29.8
2019-02-18T05:25:45.070Z,29.8
2019-02-18T05:26:35.393Z,29.8
2019-02-18T05:27:37.277Z,29.8
2019-02-18T05:28:16.104Z,29.8
2019-02-18T05:29:05.895Z,29.8
2019-02-18T05:29:55.895Z,29.8
2019-02-18T05:30:45.743Z,29.8
2019-02-18T05:31:36.045Z,29.8
2019-02-18T05:32:25.610Z,29.8
2019-02-18T05:33:16.387Z,29.8
2019-02-18T05:34:06.293Z,29.8
2019-02-18T05:34:55.934Z,29.8
2019-02-18T05:35:45.737Z,29.8
2019-02-18T05:36:36.362Z,29.8
2019-02-18T05:37:25.772Z,29.8
2019-02-18T05:38:16.066Z,29.8
2019-02-18T05:39:16.879Z,29.8
2019-02-18T05:39:58.139Z,29.8
2019-02-18T05:40:46.002Z,29.8
2019-02-18T05:41:36.298Z,29.8
2019-02-18T05:42:26.419Z,29.8
2019-02-18T05:43:16.561Z,29.8
2019-02-18T05:44:05.824Z,29.7
2019-02-18T05:44:56.694Z,29.8
2019-02-18T05:45:46.721Z,29.7
2019-02-18T05:46:36.239Z,29.7
2019-02-18T05:47:26.342Z,29.8
2019-02-18T05:48:16.989Z,29.7
2019-02-18T05:49:06.179Z,29.7
2019-02-18T05:49:57.623Z,29.7
2019-02-18T05:50:47.311Z,29.7
2019-02-18T05:51:37.378Z,29.7
2019-02-18T05:52:26.711Z,29.7
2019-02-18T05:53:16.545Z,29.7
2019-02-18T05:54:07.316Z,29.7
2019-02-18T05:54:57.348Z,29.7
2019-02-18T05:55:47.434Z,29.7
2019-02-18T05:56:37.461Z,29.7
2019-02-18T05:57:28.282Z,29.7
2019-02-18T05:58:17.888Z,29.7
2019-02-18T05:59:07.681Z,29.7
2019-02-18T05:59:57.410Z,29.7
2019-02-18T06:00:47.542Z,29.7
2019-02-18T06:01:37.515Z,29.7
2019-02-18T06:02:28.183Z,29.6
2019-02-18T06:03:17.105Z,29.7
2019-02-18T06:04:08.545Z,29.6
2019-02-18T06:06:05.271Z,29.6
2019-02-18T06:06:56.248Z,29.6
2019-02-18T06:07:46.370Z,29.6
2019-02-18T06:08:35.252Z,29.6
2019-02-18T06:09:35.240Z,29.6
2019-02-18T06:10:20.285Z,29.6
2019-02-18T06:11:05.583Z,29.6
2019-02-18T06:11:55.793Z,29.6
2019-02-18T06:12:45.635Z,29.6
2019-02-18T06:13:35.618Z,29.6
2019-02-18T06:14:26.222Z,29.6
2019-02-18T06:15:15.739Z,29.6
2019-02-18T06:16:06.561Z,29.6
2019-02-18T06:16:56.925Z,29.6
2019-02-18T06:17:47.124Z,29.6
2019-02-18T06:18:37.270Z,29.6
2019-02-18T06:19:26.507Z,29.6
2019-02-18T06:20:16.642Z,29.6
2019-02-18T06:21:06.921Z,29.6
2019-02-18T06:21:56.424Z,29.6
2019-02-18T06:22:47.307Z,29.6
2019-02-18T06:23:52.026Z,29.6
2019-02-18T06:24:27.026Z,29.6
2019-02-18T06:26:07.473Z,29.6
2019-02-18T06:26:57.309Z,29.6
2019-02-18T06:27:46.871Z,29.6
2019-02-18T06:28:37.481Z,29.6
2019-02-18T06:29:27.806Z,29.6
2019-02-18T06:30:16.991Z,29.6
2019-02-18T06:31:07.924Z,29.6
2019-02-18T06:31:57.091Z,29.6
2019-02-18T06:32:47.747Z,29.6
2019-02-18T06:33:37.576Z,29.6
2019-02-18T06:34:28.178Z,29.6
2019-02-18T06:35:17.468Z,29.6
2019-02-18T06:36:07.672Z,29.6
2019-02-18T06:36:57.860Z,29.6
2019-02-18T06:37:47.698Z,29.6
2019-02-18T06:38:37.379Z,29.6
2019-02-18T06:39:27.557Z,29.6
2019-02-18T06:40:17.902Z,29.6
2019-02-18T06:41:07.414Z,29.6
2019-02-18T06:41:58.045Z,29.6
2019-02-18T06:42:47.888Z,29.6
2019-02-18T06:43:38.732Z,29.6
2019-02-18T06:44:27.967Z,29.6
2019-02-18T06:45:18.570Z,29.6
2019-02-18T06:46:08.349Z,29.6
2019-02-18T06:46:59.172Z,29.6
2019-02-18T06:47:48.192Z,29.6
2019-02-18T06:48:39.056Z,29.6
2019-02-18T06:49:28.630Z,29.6
2019-02-18T06:50:18.719Z,29.6
2019-02-18T06:51:08.729Z,29.5
2019-02-18T06:51:59.329Z,29.5
2019-02-18T06:52:48.557Z,29.5
2019-02-18T06:53:39.154Z,29.6
2019-02-18T06:54:44.157Z,29.6
2019-02-18T06:55:19.272Z,29.5
2019-02-18T06:56:09.333Z,29.5
2019-02-18T06:56:59.727Z,29.6
2019-02-18T06:57:49.437Z,29.5
2019-02-18T06:58:39.209Z,29.5
2019-02-18T06:59:29.254Z,29.5
2019-02-18T07:00:20.017Z,29.6
2019-02-18T07:01:09.414Z,29.5
2019-02-18T07:01:58.897Z,29.5
2019-02-18T07:02:50.345Z,29.5
2019-02-18T07:03:39.098Z,29.5
2019-02-18T07:06:05.831Z,41.3
2019-02-18T07:06:56.716Z,38.9
2019-02-18T07:07:45.439Z,42.4
2019-02-18T07:08:35.221Z,44.7
2019-02-18T07:09:25.756Z,44.4
2019-02-18T07:10:14.467Z,42.9
2019-02-18T07:11:06.523Z,41.6
2019-02-18T07:11:56.279Z,40.8
2019-02-18T07:12:46.300Z,40.2
2019-02-18T07:13:36.766Z,39.7
2019-02-18T07:14:26.186Z,39.3
2019-02-18T07:15:15.913Z,38.9
2019-02-18T07:16:06.576Z,38.5
2019-02-18T07:16:56.820Z,38.2
2019-02-18T07:17:46.358Z,37.9
2019-02-18T07:18:36.673Z,37.6
2019-02-18T07:19:58.280Z,37.4
2019-02-18T07:20:16.853Z,36.9
2019-02-18T07:21:06.050Z,36.9
2019-02-18T07:21:56.943Z,36.6
2019-02-18T07:22:47.528Z,36.4
2019-02-18T07:23:36.770Z,36.2
2019-02-18T07:24:26.926Z,35.9
2019-02-18T07:25:17.435Z,38.9
2019-02-18T07:26:06.931Z,43.4
2019-02-18T07:26:57.471Z,42.9
2019-02-18T07:27:47.597Z,45.4
2019-02-18T07:28:36.595Z,47.3
2019-02-18T07:29:26.905Z,47.7
2019-02-18T07:30:16.945Z,47
2019-02-18T07:31:07.597Z,46.3
2019-02-18T07:31:57.673Z,46.1
2019-02-18T07:32:47.433Z,46.3
2019-02-18T07:33:37.200Z,46.6
2019-02-18T07:34:27.979Z,47
2019-02-18T07:35:18.177Z,47.4
2019-02-18T07:36:07.904Z,47.7
2019-02-18T07:36:58.572Z,47.9
2019-02-18T07:38:02.149Z,47.9
2019-02-18T07:38:37.234Z,48
2019-02-18T07:39:27.647Z,48.1
2019-02-18T07:40:18.669Z,48.2
2019-02-18T07:41:08.502Z,48.3
2019-02-18T07:41:58.292Z,48.4
2019-02-18T07:42:48.379Z,48.4
2019-02-18T07:43:38.416Z,48.4
2019-02-18T07:44:28.216Z,48.5
2019-02-18T07:45:18.823Z,48.6
2019-02-18T07:46:08.831Z,48.7
2019-02-18T07:46:58.716Z,48.8
2019-02-18T07:47:48.148Z,48.9
2019-02-18T07:48:41.171Z,49.1
2019-02-18T07:49:28.573Z,49.3
2019-02-18T07:50:26.209Z,49.3
2019-02-18T07:51:12.406Z,49.5
2019-02-18T07:51:59.001Z,49.6
2019-02-18T07:52:48.511Z,49.7
2019-02-18T07:53:38.886Z,49.8
2019-02-18T07:54:29.193Z,49.9
2019-02-18T07:55:19.496Z,50.1
2019-02-18T07:56:09.311Z,50.2
2019-02-18T07:56:59.050Z,50.3
2019-02-18T07:57:49.130Z,50.4
2019-02-18T07:58:39.155Z,50.6
2019-02-18T07:59:28.472Z,50.7
2019-02-18T08:00:19.570Z,50.8
2019-02-18T08:01:09.690Z,50.9
2019-02-18T08:01:59.974Z,51.1
2019-02-18T08:02:50.080Z,51.2
2019-02-18T08:03:39.278Z,51.3
2019-02-18T08:04:29.298Z,51.4
2019-02-18T08:05:19.672Z,51.6
2019-02-18T08:06:09.425Z,51.7
2019-02-18T08:06:59.223Z,51.8
2019-02-18T08:07:50.092Z,51.9
2019-02-18T08:08:39.726Z,52
2019-02-18T08:09:29.390Z,52.1
2019-02-18T08:10:20.255Z,52.3
2019-02-18T08:12:00.077Z,52.6
2019-02-18T08:12:49.322Z,52.6
2019-02-18T08:13:40.604Z,52.1
2019-02-18T08:14:30.612Z,52
2019-02-18T08:15:20.365Z,52.1
2019-02-18T08:16:09.574Z,52.3
2019-02-18T08:17:00.283Z,52.4
2019-02-18T08:17:50.300Z,52.6
2019-02-18T08:18:40.394Z,52.8
2019-02-18T08:19:30.907Z,52.9
2019-02-18T08:20:20.472Z,53.1
2019-02-18T08:21:09.685Z,53.1
2019-02-18T08:22:00.058Z,53.3
2019-02-18T08:22:50.927Z,53.4
2019-02-18T08:23:40.917Z,53.5
2019-02-18T08:24:30.493Z,53.7
2019-02-18T08:25:20.596Z,53.8
2019-02-18T08:26:11.141Z,53.9
2019-02-18T08:27:01.519Z,54.1
2019-02-18T08:27:51.469Z,54.3
2019-02-18T08:28:41.891Z,54.4
2019-02-18T08:29:31.594Z,54.5
2019-02-18T08:30:21.142Z,54.6
2019-02-18T08:31:11.424Z,54.8
2019-02-18T08:32:01.757Z,54.9
2019-02-18T08:32:51.531Z,55.1
2019-02-18T08:33:41.911Z,55.2
2019-02-18T08:34:31.653Z,55.3
2019-02-18T08:35:22.003Z,55.5
2019-02-18T08:36:11.790Z,55.6
2019-02-18T08:37:01.829Z,55.8
2019-02-18T08:37:52.260Z,55.9
2019-02-18T08:38:42.040Z,56
2019-02-18T08:39:32.308Z,56.1
2019-02-18T08:40:27.708Z,56.3
2019-02-18T08:41:11.310Z,56.3
2019-02-18T08:42:01.694Z,56.4
2019-02-18T08:42:52.050Z,56.5
2019-02-18T08:43:41.775Z,56.6
2019-02-18T08:44:32.614Z,56.8
2019-02-18T08:45:22.718Z,56.9
2019-02-18T08:46:12.750Z,57
2019-02-18T08:47:01.980Z,57.1
2019-02-18T08:47:52.045Z,57.3
2019-02-18T08:48:43.220Z,57.4
2019-02-18T08:49:33.070Z,57.5
2019-02-18T08:50:22.757Z,57.6
2019-02-18T08:51:13.186Z,57.7
2019-02-18T08:52:02.052Z,57.8
2019-02-18T08:52:52.654Z,57.9
2019-02-18T08:53:43.312Z,58
2019-02-18T08:54:32.371Z,58.1
2019-02-18T08:55:22.920Z,58.2
2019-02-18T08:56:13.717Z,58.4
2019-02-18T08:57:02.114Z,58.4
2019-02-18T08:57:53.267Z,58.5
2019-02-18T08:59:33.387Z,58.7
2019-02-18T09:00:23.447Z,58.8
2019-02-18T09:01:13.783Z,58.8
2019-02-18T09:02:03.892Z,58.9
2019-02-18T09:02:54.204Z,59
2019-02-18T09:03:43.719Z,59.1
2019-02-18T09:04:34.034Z,59.1
2019-02-18T09:05:24.859Z,59.3
2019-02-18T09:06:13.556Z,59.3
2019-02-18T09:07:04.574Z,59.4
2019-02-18T09:07:53.694Z,59.5
2019-02-18T09:08:44.119Z,59.6
2019-02-18T09:09:34.349Z,59.7
2019-02-18T09:10:36.162Z,59.8
2019-02-18T09:11:14.797Z,59.8
2019-02-18T09:12:04.524Z,59.9
2019-02-18T09:12:54.338Z,59.9
2019-02-18T09:13:44.717Z,60.1
2019-02-18T09:14:34.421Z,60.1
2019-02-18T09:15:24.755Z,60.2
2019-02-18T09:16:15.082Z,60.3
2019-02-18T09:17:04.661Z,60.3
2019-02-18T09:17:55.013Z,60.4
2019-02-18T09:18:44.347Z,60.5
2019-02-18T09:19:34.841Z,60.6
2019-02-18T09:20:27.981Z,60.7
2019-02-18T09:21:14.643Z,60.8
2019-02-18T09:22:05.225Z,60.9
2019-02-18T09:22:54.540Z,60.9
2019-02-18T09:23:45.663Z,60.9
2019-02-18T09:24:35.385Z,61.1
2019-02-18T09:25:25.493Z,61.2
2019-02-18T09:26:14.738Z,61.3
2019-02-18T09:27:04.850Z,61.3
2019-02-18T09:27:56.013Z,61.4
2019-02-18T09:28:45.180Z,61.4
2019-02-18T09:29:35.175Z,61.6
2019-02-18T09:30:25.326Z,61.6
2019-02-18T09:31:15.375Z,61.7
2019-02-18T09:32:05.157Z,61.8
2019-02-18T09:32:54.968Z,61.8
2019-02-18T09:33:45.005Z,61.9
2019-02-18T09:34:35.394Z,62.1
2019-02-18T09:35:25.717Z,62.1
2019-02-18T09:36:15.448Z,62.3
2019-02-18T09:37:04.987Z,62.3
2019-02-18T09:37:56.274Z,62.3
2019-02-18T09:38:45.897Z,62.4
2019-02-18T09:39:36.154Z,62.4
2019-02-18T09:40:24.991Z,62.5
2019-02-18T09:41:15.260Z,62.6
2019-02-18T09:42:06.489Z,62.7
2019-02-18T09:42:55.177Z,62.8
2019-02-18T09:43:46.027Z,62.8
2019-02-18T09:44:35.739Z,62.9
2019-02-18T09:45:26.165Z,63
2019-02-18T09:46:16.414Z,63
2019-02-18T09:47:06.992Z,63.1
2019-02-18T09:47:58.479Z,63.3
2019-02-18T09:48:46.316Z,63.3
2019-02-18T09:49:36.935Z,63.4
2019-02-18T09:50:26.904Z,63.5
2019-02-18T09:51:17.091Z,63.6
2019-02-18T09:52:06.613Z,63.7
2019-02-18T09:52:56.354Z,63.8
2019-02-18T09:53:47.471Z,63.8
2019-02-18T09:54:37.218Z,63.9
2019-02-18T09:55:26.684Z,64
2019-02-18T09:56:17.154Z,64.1
2019-02-18T09:57:07.921Z,64.1
2019-02-18T09:57:56.935Z,64.2
2019-02-18T09:58:50.029Z,64.3
2019-02-18T09:59:38.093Z,64.4
2019-02-18T10:00:27.878Z,64.4
2019-02-18T10:01:17.993Z,64.4
2019-02-18T10:02:07.978Z,64.6
2019-02-18T10:02:57.493Z,64.6
2019-02-18T10:03:47.308Z,64.6
2019-02-18T10:04:38.198Z,64.7
2019-02-18T10:07:05.981Z,64.9
2019-02-18T10:07:55.195Z,65.1
2019-02-18T10:08:45.530Z,65.1
2019-02-18T10:09:35.028Z,65.2
2019-02-18T10:10:26.260Z,65.3
2019-02-18T10:11:15.685Z,65.3
2019-02-18T10:12:05.517Z,65.4
2019-02-18T10:12:56.350Z,65.5
2019-02-18T10:13:45.592Z,65.6
2019-02-18T10:14:35.912Z,65.6
2019-02-18T10:15:26.555Z,65.6
2019-02-18T10:16:16.090Z,65.8
2019-02-18T10:17:06.352Z,65.8
2019-02-18T10:17:56.472Z,65.9
2019-02-18T10:18:45.909Z,66
2019-02-18T10:19:35.779Z,66.1
2019-02-18T10:20:26.864Z,66.1
2019-02-18T10:21:16.382Z,66.1
2019-02-18T10:22:06.450Z,66.3
2019-02-18T10:22:56.206Z,66.3
2019-02-18T10:23:47.109Z,66.4
2019-02-18T10:24:36.607Z,66.5
2019-02-18T10:25:27.268Z,66.6
2019-02-18T10:26:17.030Z,66.6
2019-02-18T10:27:06.894Z,66.8
2019-02-18T10:27:57.366Z,66.8
2019-02-18T10:28:47.163Z,66.9
2019-02-18T10:29:37.482Z,66.9
2019-02-18T10:30:27.045Z,67
2019-02-18T10:31:17.091Z,67.1
2019-02-18T10:32:07.405Z,67.1
2019-02-18T10:32:57.186Z,67.2
2019-02-18T10:33:46.151Z,67.3
2019-02-18T10:34:36.529Z,67.3
2019-02-18T10:35:29.584Z,67.4
2019-02-18T10:36:17.393Z,67.4
2019-02-18T10:37:08.016Z,67.5
2019-02-18T10:38:00.717Z,67.6
2019-02-18T10:38:47.906Z,67.6
2019-02-18T10:39:37.696Z,67.7
2019-02-18T10:40:27.135Z,67.8
2019-02-18T10:41:20.481Z,67.9
2019-02-18T10:42:06.989Z,67.9
2019-02-18T10:42:58.158Z,68
2019-02-18T10:43:48.228Z,68.1
2019-02-18T10:44:37.776Z,68.1
2019-02-18T10:45:28.733Z,68.2
2019-02-18T10:46:18.150Z,68.3
2019-02-18T10:47:10.451Z,68.3
2019-02-18T10:47:58.856Z,68.4
2019-02-18T10:48:48.320Z,68.4
2019-02-18T10:49:38.653Z,68.5
2019-02-18T10:50:29.137Z,68.6
2019-02-18T10:51:18.293Z,68.6
2019-02-18T10:52:08.703Z,68.7
2019-02-18T10:52:58.835Z,68.8
2019-02-18T10:53:49.345Z,68.8
2019-02-18T10:54:39.116Z,68.9
2019-02-18T10:55:29.131Z,68.9
2019-02-18T10:56:21.089Z,69
2019-02-18T10:57:09.175Z,69.1
2019-02-18T10:57:59.245Z,69.2
2019-02-18T10:58:48.754Z,69.2
2019-02-18T10:59:39.045Z,69.3
2019-02-18T11:00:28.862Z,69.3
2019-02-18T11:01:18.913Z,69.4
2019-02-18T11:02:09.669Z,69.4
2019-02-18T11:02:59.014Z,69.4
2019-02-18T11:03:49.407Z,69.6
2019-02-18T11:04:39.722Z,69.6
2019-02-18T11:05:31.927Z,69.7
2019-02-18T11:06:19.847Z,69.8
2019-02-18T11:07:09.029Z,69.8
2019-02-18T11:07:59.722Z,69.8
2019-02-18T11:08:49.672Z,69.9
2019-02-18T11:09:40.004Z,69.9
2019-02-18T11:10:29.786Z,70
2019-02-18T11:11:22.336Z,70
2019-02-18T11:12:09.666Z,70
2019-02-18T11:13:02.296Z,70.1
2019-02-18T11:13:50.164Z,70.2
2019-02-18T11:14:39.871Z,70.2
2019-02-18T11:15:29.921Z,70.3
2019-02-18T11:16:20.246Z,70.3
2019-02-18T11:17:10.631Z,70.4
2019-02-18T11:18:00.911Z,70.4